Time;durP1;ratioP1;P1;durP2;ratioP2;P2;SDS_P1;SDS_P2;PMS_P1;PMS_P2;Temp;Humidity;BMP_temperature;BMP_pressure;BME280_temperature;BME280_humidity;BME280_pressure;Samples;Min_cycle;Max_cycle;Signal;HPM_P1;HPM_P2
2022/09/24 00:01:39;;;;;;;;;4.50;4.50;;;;;15.76;48.52;101367.91;146611;588;46020;-71
2022/09/24 00:04:34;;;;;;;;;4.75;4.75;;;;;15.73;49.34;101364.28;146617;564;47012;-69
2022/09/24 00:07:29;;;;;;;;;5.00;5.00;;;;;15.66;49.46;101361.38;146622;572;46010;-70
2022/09/24 00:10:23;;;;;;;;;4.50;4.50;;;;;15.61;49.49;101362.03;146619;602;46012;-71
2022/09/24 00:13:18;;;;;;;;;8.50;6.75;;;;;15.57;49.63;101371.44;146620;605;47010;-71
2022/09/24 00:16:16;;;;;;;;;7.00;4.25;;;;;15.49;49.12;101370.25;146616;588;46016;-69
2022/09/24 00:19:09;;;;;;;;;6.00;5.25;;;;;15.43;49.46;101372.63;146617;571;46020;-70
2022/09/24 00:22:01;;;;;;;;;7.00;5.00;;;;;15.35;49.78;101364.44;146618;602;47012;-71
2022/09/24 00:28:09;;;;;;;;;5.00;5.00;;;;;15.16;49.86;101374.94;146615;585;46023;-67
2022/09/24 00:31:18;;;;;;;;;8.00;7.00;;;;;12.85;49.45;100982.19;146608;672;46020;-72
2022/09/24 00:34:13;;;;;;;;;6.00;5.25;;;;;14.95;49.96;101361.84;146616;590;46916;-70
2022/09/24 00:37:11;;;;;;;;;6.00;5.00;;;;;14.86;50.37;101367.59;146622;595;46021;-70
2022/09/24 00:40:06;;;;;;;;;6.75;6.25;;;;;14.76;50.52;101368.87;146615;610;46016;-70
2022/09/24 00:43:04;;;;;;;;;7.00;6.75;;;;;14.71;50.70;101375.63;146622;583;46020;-71
2022/09/24 00:46:16;;;;;;;;;6.25;5.25;;;;;14.70;50.57;101371.22;146615;709;46016;-70
2022/09/24 00:49:34;;;;;;;;;5.00;5.00;;;;;12.56;50.01;100994.75;146621;575;46020;-67
2022/09/24 00:52:34;;;;;;;;;6.50;5.75;;;;;14.66;50.46;101361.47;146618;636;46014;-68
2022/09/24 00:55:48;;;;;;;;;8.00;6.25;;;;;14.62;50.45;101372.59;146621;593;46010;-66
2022/09/24 00:58:55;;;;;;;;;8.00;6.75;;;;;14.59;50.88;101382.00;146617;702;46017;-67
2022/09/24 01:01:57;;;;;;;;;7.00;7.00;;;;;14.55;51.37;101378.38;146609;602;46020;-65
2022/09/24 01:05:17;;;;;;;;;7.25;5.50;;;;;14.49;51.39;101383.28;146615;579;46018;-65
2022/09/24 01:08:19;;;;;;;;;6.00;5.50;;;;;14.49;51.09;101386.78;146620;613;46012;-66
2022/09/24 01:12:10;;;;;;;;;7.75;6.00;;;;;12.60;50.76;101061.69;146619;623;46016;-65
2022/09/24 01:15:33;;;;;;;;;4.50;4.00;;;;;12.22;50.07;101006.13;146621;598;46020;-68
2022/09/24 01:19:06;;;;;;;;;5.25;4.25;;;;;11.62;49.91;100908.72;146617;577;46016;-68
2022/09/24 01:22:20;;;;;;;;;5.00;5.00;;;;;14.48;50.92;101392.78;146618;599;47010;-67
2022/09/24 01:26:21;;;;;;;;;6.25;4.75;;;;;12.56;49.28;101057.19;146614;581;46016;-67
2022/09/24 01:29:46;;;;;;;;;7.00;6.75;;;;;14.49;50.50;101397.22;146620;629;46021;-68
2022/09/24 01:33:24;;;;;;;;;6.75;6.75;;;;;12.26;49.37;101012.34;146616;647;46016;-67
2022/09/24 01:36:37;;;;;;;;;7.25;7.25;;;;;14.44;51.28;101397.81;146610;607;46021;-66
2022/09/24 01:39:32;;;;;;;;;5.00;5.00;;;;;14.36;51.84;101393.94;146617;580;46012;-66
2022/09/24 01:42:37;;;;;;;;;6.25;6.00;;;;;14.27;52.05;101397.94;146619;723;46021;-66
2022/09/24 01:45:45;;;;;;;;;9.75;6.75;;;;;14.18;51.13;101394.00;146616;629;46012;-66
2022/09/24 01:48:47;;;;;;;;;8.00;7.00;;;;;14.12;52.28;101394.59;146618;595;46010;-68
2022/09/24 01:52:17;;;;;;;;;4.50;3.75;;;;;11.86;51.36;101009.47;146613;570;46016;-68
2022/09/24 01:55:27;;;;;;;;;;;;;;;;;;;;;
2022/09/24 01:58:55;;;;;;;;;5.25;5.00;;;;;11.72;51.29;101011.38;146617;653;46032;-67
2022/09/24 02:02:13;;;;;;;;;5.75;4.75;;;;;13.89;52.30;101403.00;146621;570;46010;-67
2022/09/24 02:05:29;;;;;;;;;6.75;6.25;;;;;13.83;52.21;101401.00;146612;589;46916;-68
2022/09/24 02:08:43;;;;;;;;;7.00;6.75;;;;;11.62;51.63;101015.19;146611;571;46010;-68
2022/09/24 02:11:46;;;;;;;;;7.00;6.00;;;;;13.77;52.73;101392.87;146616;580;47012;-67
2022/09/24 02:15:08;;;;;;;;;4.75;4.75;;;;;13.75;53.92;101402.34;146621;606;46010;-67
2022/09/24 02:18:10;;;;;;;;;7.75;6.75;;;;;13.69;53.51;101391.62;146612;665;46016;-67
2022/09/24 02:21:17;;;;;;;;;6.00;6.00;;;;;13.71;53.38;101403.03;146619;640;47010;-67
2022/09/24 02:24:15;;;;;;;;;8.25;7.25;;;;;13.68;54.51;101401.16;146615;595;47014;-68
2022/09/24 02:27:13;;;;;;;;;6.00;6.00;;;;;13.62;54.67;101398.25;146618;570;46020;-67
2022/09/24 02:30:15;;;;;;;;;9.50;7.50;;;;;13.55;54.72;101397.06;146616;569;46012;-67
2022/09/24 02:36:31;;;;;;;;;8.00;8.00;;;;;13.48;54.89;101396.66;146612;591;46017;-68
2022/09/24 02:39:29;;;;;;;;;6.50;6.00;;;;;13.47;54.31;101402.69;146611;593;46020;-67
2022/09/24 02:42:26;;;;;;;;;7.50;7.50;;;;;13.49;54.09;101403.66;146615;622;46017;-65
2022/09/24 02:45:21;;;;;;;;;7.50;7.50;;;;;13.51;55.32;101402.03;146618;588;46020;-66
2022/09/24 02:48:22;;;;;;;;;6.00;6.00;;;;;13.51;54.70;101410.72;146618;581;46016;-66
2022/09/24 02:51:17;;;;;;;;;6.50;6.50;;;;;13.48;54.62;101401.88;146621;569;46012;-66
2022/09/24 02:54:25;;;;;;;;;6.00;5.25;;;;;13.49;53.58;101414.06;146619;559;46016;-68
2022/09/24 02:57:36;;;;;;;;;7.50;7.50;;;;;11.06;53.24;100988.03;146623;599;46010;-67
2022/09/24 03:00:28;;;;;;;;;6.25;6.25;;;;;13.47;54.09;101410.50;146614;667;46016;-68
2022/09/24 03:03:29;;;;;;;;;8.25;6.00;;;;;13.49;54.38;101420.19;146621;601;46020;-67
2022/09/24 03:06:27;;;;;;;;;8.00;6.75;;;;;13.52;54.39;101422.97;146619;575;46012;-66
2022/09/24 03:09:22;;;;;;;;;6.00;5.00;;;;;13.51;53.55;101415.94;146615;571;46010;-68
2022/09/24 03:12:18;;;;;;;;;7.25;6.00;;;;;13.47;55.43;101418.31;146616;685;46012;-65
2022/09/24 03:15:28;;;;;;;;;5.00;5.00;;;;;11.17;53.92;101024.94;146620;580;47012;-66
2022/09/24 03:18:23;;;;;;;;;5.75;5.75;;;;;13.34;55.14;101419.41;146616;692;46016;-69
2022/09/24 03:21:25;;;;;;;;;6.00;6.00;;;;;13.27;56.25;101423.44;146617;630;46025;-68
2022/09/24 03:24:24;;;;;;;;;7.75;7.50;;;;;13.14;55.58;101426.16;146616;593;46012;-67
2022/09/24 03:27:23;;;;;;;;;5.75;5.75;;;;;13.06;55.83;101437.91;146616;565;46020;-67
2022/09/24 03:33:46;;;;;;;;;8.00;8.00;;;;;12.81;55.35;101428.78;146619;625;46020;-68
2022/09/24 03:36:43;;;;;;;;;7.00;6.50;;;;;12.80;55.92;101441.69;146615;564;46012;-70
2022/09/24 03:39:40;;;;;;;;;8.25;8.25;;;;;12.77;55.61;101450.22;146612;565;46012;-69
2022/09/24 03:42:45;;;;;;;;;;;;;;;;;;;;;
2022/09/24 03:46:01;;;;;;;;;9.75;8.50;;;;;10.67;55.55;101085.31;146619;585;46020;-68
2022/09/24 03:49:05;;;;;;;;;7.75;7.00;;;;;12.77;55.63;101459.75;146615;666;46014;-69
2022/09/24 03:52:06;;;;;;;;;7.50;7.50;;;;;12.74;55.43;101459.59;146620;598;46020;-69
2022/09/24 03:54:58;;;;;;;;;9.50;8.25;;;;;12.73;56.58;101463.00;146618;582;46016;-69
2022/09/24 03:57:53;;;;;;;;;9.00;8.00;;;;;12.71;55.68;101462.94;146622;573;46010;-67
2022/09/24 04:00:50;;;;;;;;;7.75;7.75;;;;;12.69;55.78;101465.44;146618;586;46030;-69
2022/09/24 04:04:19;;;;;;;;;;;;;;;;;;;;;
2022/09/24 04:07:16;;;;;;;;;7.00;7.00;;;;;12.79;55.97;101463.34;146617;619;46016;-67
2022/09/24 04:10:16;;;;;;;;;7.00;7.00;;;;;12.79;55.29;101463.34;146612;692;46020;-65
2022/09/24 04:13:14;;;;;;;;;8.00;8.00;;;;;12.79;55.47;101469.44;146618;595;46016;-66
2022/09/24 04:16:15;;;;;;;;;9.75;8.00;;;;;12.79;54.60;101469.44;146620;614;46010;-66
2022/09/24 04:19:22;;;;;;;;;9.00;9.00;;;;;10.78;53.86;101106.69;146616;581;48012;-66
2022/09/24 04:22:32;;;;;;;;;8.00;8.00;;;;;10.59;54.07;101079.72;146618;615;47020;-69
2022/09/24 04:25:34;;;;;;;;;10.75;9.00;;;;;12.85;54.75;101472.38;146615;606;46016;-66
2022/09/24 04:28:29;;;;;;;;;11.00;9.75;;;;;12.89;54.98;101479.53;146621;606;46020;-65
2022/09/24 04:31:29;;;;;;;;;7.75;7.00;;;;;12.93;54.60;101475.41;146619;573;46012;-64
2022/09/24 04:34:23;;;;;;;;;8.50;7.50;;;;;12.98;54.17;101478.25;146622;619;46011;-67
2022/09/24 04:37:19;;;;;;;;;9.75;7.50;;;;;13.02;53.80;101478.50;146612;577;47012;-67
2022/09/24 04:40:12;;;;;;;;;10.75;9.25;;;;;13.06;54.28;101479.56;146612;580;46020;-65
2022/09/24 04:43:10;;;;;;;;;7.25;7.00;;;;;13.05;53.73;101475.13;146610;670;47902;-64
2022/09/24 04:46:18;;;;;;;;;6.50;6.50;;;;;13.06;53.24;101479.56;146619;613;46030;-64
2022/09/24 04:49:16;;;;;;;;;7.25;7.25;;;;;13.15;53.77;101483.53;146619;596;46013;-66
2022/09/24 04:52:15;;;;;;;;;9.25;9.00;;;;;13.25;53.25;101487.56;146617;579;46020;-66
2022/09/24 04:55:14;;;;;;;;;7.75;7.75;;;;;13.48;53.97;101491.34;146615;579;46016;-66
2022/09/24 04:58:29;;;;;;;;;5.50;5.50;;;;;14.36;51.87;101488.78;146617;576;47020;-66
2022/09/24 05:01:26;;;;;;;;;7.25;6.50;;;;;15.43;50.58;101498.06;146617;593;46016;-65
2022/09/24 05:04:31;;;;;;;;;9.50;7.75;;;;;16.37;48.52;101501.16;146621;564;46010;-65
2022/09/24 05:07:34;;;;;;;;;10.50;9.25;;;;;17.24;46.54;101500.16;146617;595;46022;-69
2022/09/24 05:10:38;;;;;;;;;10.50;7.50;;;;;17.98;45.66;101501.91;146602;594;46021;-67
2022/09/24 05:13:34;;;;;;;;;11.00;10.00;;;;;18.63;44.74;101501.34;146617;563;46016;-66
2022/09/24 05:16:36;;;;;;;;;13.00;10.50;;;;;19.17;43.29;101505.59;146614;569;46010;-67
2022/09/24 05:19:31;;;;;;;;;9.00;9.00;;;;;19.58;42.82;101504.13;146611;570;46016;-67
2022/09/24 05:22:32;;;;;;;;;10.00;9.00;;;;;19.95;41.96;101500.72;146621;603;46010;-69
2022/09/24 05:27:08;;;;;;;;;9.25;8.25;;;;;20.21;41.12;101506.62;146618;572;46017;-67
2022/09/24 05:28:55;;;;;;;;;7.00;7.00;;;;;20.19;40.06;101500.47;146619;622;46012;-67
2022/09/24 05:31:53;;;;;;;;;11.50;8.75;;;;;19.93;40.81;101509.44;146615;612;46016;-68
2022/09/24 05:34:59;;;;;;;;;6.50;6.25;;;;;19.57;41.14;101505.84;146618;611;46021;-69
2022/09/24 05:37:52;;;;;;;;;8.75;8.50;;;;;19.36;41.65;101508.78;146616;599;46025;-67
2022/09/24 05:40:53;;;;;;;;;8.25;7.00;;;;;19.23;42.05;101508.41;146611;618;46021;-68
2022/09/24 05:43:51;;;;;;;;;8.75;7.25;;;;;19.09;42.33;101506.25;146614;585;46026;-68
2022/09/24 05:46:40;;;;;;;;;10.25;9.25;;;;;18.96;42.97;101506.75;146713;573;45023;-70
2022/09/24 05:49:35;;;;;;;;;9.25;8.25;;;;;18.89;42.98;101510.94;146626;735;46016;-69
2022/09/24 05:52:43;;;;;;;;;9.75;9.75;;;;;18.85;43.03;101518.69;146629;608;46020;-68
2022/09/24 05:55:36;;;;;;;;;14.75;14.00;;;;;18.84;43.99;101523.03;146625;579;46014;-70
2022/09/24 05:58:34;;;;;;;;;18.75;18.00;;;;;18.93;43.68;101510.19;146623;604;46020;-70
2022/09/24 06:01:43;;;;;;;;;20.75;16.25;;;;;19.14;44.31;101519.53;146619;650;46030;-72
2022/09/24 06:04:44;;;;;;;;;14.50;14.25;;;;;19.39;42.87;101514.13;146624;626;46010;-70
2022/09/24 06:07:48;;;;;;;;;16.00;16.00;;;;;19.46;43.17;101523.06;146620;647;45918;-70
2022/09/24 06:10:54;;;;;;;;;16.25;11.50;;;;;19.50;43.02;101509.19;146623;616;46020;-70
2022/09/24 06:14:03;;;;;;;;;14.00;13.00;;;;;19.77;43.76;101521.31;146618;602;46016;-71
2022/09/24 06:17:05;;;;;;;;;14.50;13.00;;;;;20.02;42.93;101522.84;146623;569;46010;-70
2022/09/24 06:20:00;;;;;;;;;12.25;12.00;;;;;20.21;42.55;101535.59;146619;622;46016;-70
2022/09/24 06:22:53;;;;;;;;;13.00;13.00;;;;;20.34;42.06;101538.53;146621;652;46020;-69
2022/09/24 06:25:44;;;;;;;;;12.75;10.75;;;;;20.48;42.81;101538.00;146620;658;46016;-71
2022/09/24 06:28:38;;;;;;;;;15.25;12.75;;;;;20.69;42.13;101545.56;146623;627;46010;-70
2022/09/24 06:31:30;;;;;;;;;15.75;15.25;;;;;20.82;41.65;101545.84;146619;592;46013;-70
2022/09/24 06:34:28;;;;;;;;;12.50;12.50;;;;;20.91;41.95;101551.34;146618;569;45020;-69
2022/09/24 06:37:22;;;;;;;;;19.25;16.50;;;;;21.06;42.01;101554.31;146621;576;46013;-72
2022/09/24 06:40:16;;;;;;;;;16.50;14.50;;;;;21.22;41.52;101559.03;146620;586;46021;-72
2022/09/24 06:43:10;;;;;;;;;18.25;17.00;;;;;21.34;41.45;101552.22;146617;564;46014;-72
2022/09/24 06:46:05;;;;;;;;;18.50;16.75;;;;;21.42;41.42;101559.47;146616;579;46020;-71
2022/09/24 06:49:12;;;;;;;;;16.75;14.50;;;;;21.58;41.45;101559.78;146612;612;46016;-71
2022/09/24 06:52:07;;;;;;;;;20.50;16.75;;;;;21.74;40.67;101567.12;146616;614;46020;-71
2022/09/24 06:55:03;;;;;;;;;13.50;12.25;;;;;21.88;40.45;101568.28;146613;588;46918;-71
2022/09/24 06:58:26;;;;;;;;;13.50;12.50;;;;;22.04;40.73;101577.34;146612;571;46020;-70
2022/09/24 07:01:18;;;;;;;;;8.25;8.25;;;;;22.19;40.29;101575.91;146611;651;46017;-70
2022/09/24 07:04:21;;;;;;;;;10.50;10.00;;;;;22.30;40.20;101574.31;146624;588;46010;-70
2022/09/24 07:07:34;;;;;;;;;11.25;11.00;;;;;22.48;40.28;101586.94;146611;572;46016;-71
2022/09/24 07:10:28;;;;;;;;;11.00;11.00;;;;;22.60;38.72;101588.00;146615;583;46021;-70
2022/09/24 07:13:22;;;;;;;;;10.00;8.75;;;;;22.66;39.88;101589.87;146610;610;46917;-69
2022/09/24 07:16:23;;;;;;;;;13.00;9.00;;;;;22.77;39.09;101590.94;146622;578;46021;-72
2022/09/24 07:19:15;;;;;;;;;9.25;8.25;;;;;22.90;40.85;101592.00;146615;589;46016;-71
2022/09/24 07:22:12;;;;;;;;;7.75;7.00;;;;;23.11;40.65;101594.06;146623;583;46020;-72
2022/09/24 07:25:04;;;;;;;;;11.00;8.00;;;;;23.36;40.13;101595.28;146619;597;45584;-72
2022/09/24 07:28:20;;;;;;;;;10.00;7.25;;;;;23.66;40.12;101592.13;146622;563;47010;-73
2022/09/24 07:31:22;;;;;;;;;12.75;12.50;;;;;23.91;38.73;101589.75;146620;573;46012;-76
2022/09/24 07:34:15;;;;;;;;;12.00;10.00;;;;;24.05;37.86;101588.16;146614;581;46020;-67
2022/09/24 07:37:10;;;;;;;;;15.75;12.25;;;;;24.14;37.63;101589.97;146612;606;46015;-70
2022/09/24 07:40:12;;;;;;;;;10.50;10.50;;;;;24.14;37.50;101593.53;146617;569;46010;-70
2022/09/24 07:43:12;;;;;;;;;10.25;10.00;;;;;24.15;37.70;101595.31;146612;662;46014;-70
2022/09/24 07:46:08;;;;;;;;;8.00;8.00;;;;;24.22;37.52;101598.00;146615;604;46021;-69
2022/09/24 07:49:16;;;;;;;;;7.00;7.00;;;;;24.23;38.04;101587.41;146618;595;46016;-69
2022/09/24 07:52:16;;;;;;;;;6.50;6.00;;;;;24.27;36.95;101594.53;146623;598;46011;-69
2022/09/24 07:55:15;;;;;;;;;7.75;6.25;;;;;24.24;36.77;101586.56;146619;563;46012;-70
2022/09/24 07:58:10;;;;;;;;;6.50;6.25;;;;;24.25;37.27;101590.97;146624;660;46010;-71
2022/09/24 08:01:03;;;;;;;;;9.00;6.75;;;;;24.26;36.75;101592.72;146619;654;46016;-69
2022/09/24 08:03:58;;;;;;;;;5.00;5.00;;;;;24.30;36.86;101586.59;146622;661;46010;-69
2022/09/24 08:06:53;;;;;;;;;5.25;5.25;;;;;24.34;37.08;101588.41;146618;565;46916;-68
2022/09/24 08:09:57;;;;;;;;;4.00;4.00;;;;;24.42;36.98;101588.47;146623;624;46020;-69
2022/09/24 08:13:01;;;;;;;;;3.25;3.25;;;;;24.47;37.44;101585.87;146618;611;46016;-67
2022/09/24 08:16:10;;;;;;;;;3.75;3.75;;;;;24.48;36.88;101585.87;146622;581;46020;-67
2022/09/24 08:19:14;;;;;;;;;3.00;3.00;;;;;24.50;35.97;101584.12;146619;689;46012;-69
2022/09/24 08:22:16;;;;;;;;;3.00;2.25;;;;;24.63;35.68;101591.31;146621;578;46020;-68
2022/09/24 08:25:17;;;;;;;;;3.00;3.00;;;;;24.69;36.69;101590.47;146621;602;46012;-69
2022/09/24 08:28:19;;;;;;;;;3.50;3.00;;;;;24.73;35.03;101583.41;146620;633;46020;-69
2022/09/24 08:31:16;;;;;;;;;2.75;2.75;;;;;24.80;35.40;101586.13;146618;598;47915;-69
2022/09/24 08:34:14;;;;;;;;;5.00;5.00;;;;;24.89;36.12;101588.84;146624;589;46010;-70
2022/09/24 08:37:14;;;;;;;;;4.00;4.00;;;;;24.93;35.06;101583.56;146617;565;46017;-67
2022/09/24 08:40:14;;;;;;;;;4.00;4.00;;;;;24.94;36.21;101582.66;146701;579;46012;-68
2022/09/24 08:43:37;;;;;;;;;5.75;4.75;;;;;24.94;36.04;101585.31;146618;668;46016;-68
2022/09/24 08:50:24;;;;;;;;;4.00;3.50;;;;;24.99;35.61;101581.81;146618;614;46016;-67
2022/09/24 08:54:18;;;;;;;;;4.00;4.00;;;;;24.17;36.64;101413.37;146623;721;46010;-70
2022/09/24 08:57:40;;;;;;;;;;;;;;;;;;;;;
2022/09/24 09:00:45;;;;;;;;;4.00;3.75;;;;;25.20;34.25;101567.78;146623;573;46010;-70
2022/09/24 09:04:15;;;;;;;;;5.50;4.00;;;;;25.23;36.11;101566.91;146619;674;46012;-68
2022/09/24 09:07:45;;;;;;;;;4.00;4.00;;;;;25.28;35.20;101562.50;146622;692;46020;-68
2022/09/24 09:10:43;;;;;;;;;6.25;4.75;;;;;25.29;34.02;101556.31;146617;692;46016;-68
2022/09/24 09:13:57;;;;;;;;;6.00;6.00;;;;;25.34;34.89;101552.81;146707;577;46012;-67
2022/09/24 09:17:11;;;;;;;;;4.00;4.00;;;;;25.49;35.07;101559.06;146623;576;46016;-68
2022/09/24 09:20:26;;;;;;;;;3.75;3.50;;;;;25.50;33.29;101548.44;146629;565;46012;-69
2022/09/24 09:24:02;;;;;;;;;5.50;4.75;;;;;25.50;34.69;101547.53;146627;596;46012;-68
2022/09/24 09:27:03;;;;;;;;;3.50;3.00;;;;;25.48;34.26;101550.22;146625;599;47045;-70
2022/09/24 09:30:06;;;;;;;;;6.50;5.50;;;;;25.45;33.82;101544.91;146622;684;46016;-68
2022/09/24 09:33:41;;;;;;;;;3.50;3.00;;;;;25.40;35.06;101549.28;146627;569;46021;-68
2022/09/24 09:37:08;;;;;;;;;4.25;4.25;;;;;25.47;35.02;101540.44;146625;583;46915;-68
2022/09/24 09:40:32;;;;;;;;;3.50;3.00;;;;;25.61;34.93;101534.28;146629;622;46010;-70
2022/09/24 09:43:30;;;;;;;;;4.50;4.50;;;;;25.70;33.27;101528.97;146624;603;46012;-71
2022/09/24 09:46:46;;;;;;;;;4.00;4.00;;;;;25.72;34.22;101536.06;146628;595;46013;-70
2022/09/24 09:49:56;;;;;;;;;5.75;4.50;;;;;25.68;33.83;101534.31;146622;570;46016;-69
2022/09/24 09:53:01;;;;;;;;;5.00;3.75;;;;;25.65;32.58;101536.97;146628;618;46010;-69
2022/09/24 09:56:08;;;;;;;;;5.00;5.00;;;;;25.67;33.29;101537.88;146624;577;46034;-69
2022/09/24 09:59:39;;;;;;;;;4.00;2.75;;;;;25.59;33.69;101528.97;146627;654;46020;-68
2022/09/24 10:02:50;;;;;;;;;4.00;4.00;;;;;25.60;32.22;101528.09;146626;605;46016;-69
2022/09/24 10:05:59;;;;;;;;;5.25;4.25;;;;;25.71;31.76;101518.37;146630;606;46010;-67
2022/09/24 10:09:00;;;;;;;;;4.75;4.75;;;;;25.75;31.90;101524.56;146626;583;46017;-71
2022/09/24 10:11:55;;;;;;;;;6.75;6.75;;;;;25.74;31.68;101518.37;146627;689;46012;-67
2022/09/24 10:14:59;;;;;;;;;2.00;2.00;;;;;25.83;31.35;101511.34;146620;700;46016;-67
2022/09/24 10:18:07;;;;;;;;;4.00;4.00;;;;;25.96;31.13;101502.50;146625;576;46021;-68
2022/09/24 10:21:03;;;;;;;;;7.25;4.75;;;;;25.96;26.44;101507.81;146625;600;46014;-67
2022/09/24 10:24:10;;;;;;;;;3.75;3.75;;;;;25.89;32.25;101503.34;146629;653;46021;-67
2022/09/24 10:27:33;;;;;;;;;5.00;4.00;;;;;25.91;31.89;101512.22;146625;611;46012;-68
2022/09/24 10:30:35;;;;;;;;;4.25;4.00;;;;;25.94;29.50;101498.94;146626;586;46011;-68
2022/09/24 10:33:34;;;;;;;;;4.50;4.00;;;;;25.97;30.22;101493.63;146622;627;46016;-69
2022/09/24 10:36:31;;;;;;;;;6.00;6.00;;;;;25.97;28.64;101498.94;146628;600;46020;-66
2022/09/24 10:39:28;;;;;;;;;4.25;4.25;;;;;25.95;30.41;101500.69;146626;614;46016;-68
2022/09/24 10:42:39;;;;;;;;;10.75;9.75;;;;;25.97;32.51;101491.84;146627;659;46010;-69
2022/09/24 10:46:05;;;;;;;;;2.00;2.00;;;;;26.04;32.10;101484.75;146624;673;46915;-67
2022/09/24 10:49:43;;;;;;;;;4.25;4.25;;;;;26.13;32.39;101484.75;146624;612;47010;-68
2022/09/24 10:53:13;;;;;;;;;4.00;4.00;;;;;26.30;32.76;101478.56;146624;627;46013;-69
2022/09/24 10:56:50;;;;;;;;;5.00;3.00;;;;;26.39;31.69;101460.81;146631;564;46010;-67
2022/09/24 11:00:10;;;;;;;;;4.00;4.00;;;;;26.46;29.80;101464.34;146625;578;46012;-69
2022/09/24 11:03:43;;;;;;;;;3.67;3.67;;;;;26.40;29.91;101456.38;146630;601;46010;-70
2022/09/24 11:07:25;;;;;;;;;4.00;4.00;;;;;25.47;27.85;101300.59;146624;635;46029;-69
2022/09/24 11:11:12;;;;;;;;;;;;;;;;;;;;;
2022/09/24 11:15:03;;;;;;;;;3.25;3.25;;;;;26.06;29.10;101440.47;146641;619;45012;-70
2022/09/24 11:18:37;;;;;;;;;4.33;4.33;;;;;25.97;30.51;101445.78;146646;596;45010;-70
2022/09/24 11:21:56;;;;;;;;;3.33;3.33;;;;;26.01;30.49;101437.84;146641;623;45913;-72
2022/09/24 11:25:35;;;;;;;;;;;;;;;;;;;;;
2022/09/24 11:29:09;;;;;;;;;3.00;3.00;;;;;26.28;26.78;101438.66;146643;693;44043;-72
2022/09/24 11:32:39;;;;;;;;;3.67;3.67;;;;;26.37;31.06;101435.09;146645;585;45020;-68
2022/09/24 11:36:20;;;;;;;;;4.00;4.00;;;;;26.57;30.00;101414.66;146642;570;45012;-67
2022/09/24 11:40:12;;;;;;;;;6.00;3.00;;;;;26.77;30.86;101403.09;146639;569;46010;-68
2022/09/24 11:43:59;;;;;;;;;2.00;2.00;;;;;26.81;28.09;101405.69;146636;586;46915;-68
2022/09/24 11:47:37;;;;;;;;;3.00;3.00;;;;;26.59;28.41;101391.62;146642;592;46010;-68
2022/09/24 11:51:05;;;;;;;;;3.00;3.00;;;;;26.55;30.57;101395.19;146636;646;46012;-68
2022/09/24 11:54:15;;;;;;;;;4.00;4.00;;;;;26.59;29.02;101386.28;146644;579;45010;-68
2022/09/24 11:57:39;;;;;;;;;3.67;3.67;;;;;26.71;30.74;101388.03;146639;569;46016;-68
2022/09/24 12:01:06;;;;;;;;;5.00;5.00;;;;;26.87;30.14;101386.16;146645;591;45020;-68
2022/09/24 12:04:55;;;;;;;;;4.67;4.67;;;;;27.03;30.15;101379.84;146643;611;46012;-68
2022/09/24 12:08:06;;;;;;;;;4.25;4.00;;;;;27.07;29.11;101378.06;146642;569;46012;-67
2022/09/24 12:11:21;;;;;;;;;4.00;4.00;;;;;27.12;29.98;101373.59;146638;626;46016;-69
2022/09/24 12:14:29;;;;;;;;;3.67;3.67;;;;;27.13;29.59;101370.03;146644;592;45020;-67
2022/09/24 12:18:18;;;;;;;;;4.00;4.00;;;;;27.04;29.88;101360.34;146642;700;45016;-67
2022/09/24 12:21:21;;;;;;;;;4.33;4.33;;;;;27.04;29.82;101371.00;146643;580;45010;-67
2022/09/24 12:24:38;;;;;;;;;4.00;4.00;;;;;26.91;30.19;101355.97;146639;563;45032;-67
2022/09/24 12:27:48;;;;;;;;;3.00;3.00;;;;;26.78;30.11;101357.81;146645;576;44913;-67
2022/09/24 12:35:05;;;;;;;;;4.00;4.00;;;;;26.64;30.45;101352.59;146644;608;45021;-67
2022/09/24 12:38:21;;;;;;;;;2.33;2.33;;;;;26.66;30.66;101350.78;146642;596;46012;-68
2022/09/24 12:41:52;;;;;;;;;6.00;5.33;;;;;26.53;30.05;101350.88;146643;600;45020;-69
2022/09/24 12:45:13;;;;;;;;;6.00;4.00;;;;;26.30;30.98;101349.16;146642;706;45012;-67
2022/09/24 12:48:28;;;;;;;;;;;;;;;;;;;;;
2022/09/24 12:51:25;;;;;;;;;3.50;3.50;;;;;26.20;30.53;101350.06;146639;638;45879;-67
2022/09/24 12:54:42;;;;;;;;;5.00;4.00;;;;;26.29;32.02;101341.19;146644;581;45020;-67
2022/09/24 12:57:54;;;;;;;;;5.00;4.00;;;;;26.33;30.29;101346.50;146640;604;45013;-67
2022/09/24 13:01:03;;;;;;;;;;;;;;;;;;;;;
2022/09/24 13:04:46;;;;;;;;;5.00;4.50;;;;;26.36;29.46;101333.19;146640;570;45016;-67
2022/09/24 13:08:05;;;;;;;;;3.00;3.00;;;;;26.13;30.26;101335.91;146642;600;45020;-66
2022/09/24 13:11:35;;;;;;;;;3.50;3.50;;;;;25.92;30.19;101335.97;146640;648;46012;-67
2022/09/24 13:14:31;;;;;;;;;4.67;3.67;;;;;25.82;30.25;101340.41;146644;585;45012;-67
2022/09/24 13:17:26;;;;;;;;;3.67;3.67;;;;;25.81;31.08;101346.63;146639;603;46014;-67
2022/09/24 13:20:44;;;;;;;;;4.75;4.75;;;;;25.82;31.06;101347.50;146645;679;46010;-66
2022/09/24 13:23:52;;;;;;;;;3.75;3.75;;;;;25.78;31.20;101344.81;146641;677;45012;-68
2022/09/24 13:27:04;;;;;;;;;4.33;3.67;;;;;25.75;30.72;101336.84;146643;669;45020;-68
2022/09/24 13:30:25;;;;;;;;;3.67;2.67;;;;;25.77;31.18;101316.50;146640;597;45016;-68
2022/09/24 13:33:46;;;;;;;;;3.67;3.67;;;;;25.79;31.71;101317.38;146642;577;45020;-67
2022/09/24 13:37:20;;;;;;;;;4.67;4.67;;;;;25.85;31.41;101313.84;146643;569;45014;-67
2022/09/24 13:40:38;;;;;;;;;5.00;4.00;;;;;25.83;31.04;101312.09;146641;606;45020;-68
2022/09/24 13:44:03;;;;;;;;;5.00;5.00;;;;;25.84;31.78;101311.22;146640;590;45017;-68
2022/09/24 13:47:36;;;;;;;;;2.67;2.67;;;;;25.98;31.47;101306.72;146641;581;45010;-69
2022/09/24 13:50:37;;;;;;;;;4.25;4.00;;;;;26.10;30.56;101301.37;146635;627;46916;-69
2022/09/24 13:53:55;;;;;;;;;4.00;4.00;;;;;26.16;30.97;101298.69;146645;673;45020;-68
2022/09/24 13:57:03;;;;;;;;;4.00;3.00;;;;;26.12;30.78;101302.25;146636;632;45037;-68
2022/09/24 14:00:26;;;;;;;;;4.25;4.25;;;;;25.27;31.68;101155.53;146629;601;46020;-69
2022/09/24 14:03:45;;;;;;;;;4.33;3.33;;;;;25.97;31.35;101289.03;146642;638;45012;-68
2022/09/24 14:06:54;;;;;;;;;6.00;5.00;;;;;25.83;30.50;101288.19;146640;575;45020;-67
2022/09/24 14:09:50;;;;;;;;;3.25;3.25;;;;;25.64;30.59;101287.28;146637;580;45016;-69
2022/09/24 14:12:51;;;;;;;;;6.00;4.33;;;;;25.47;29.50;101290.87;146637;559;46010;-69
2022/09/24 14:16:20;;;;;;;;;3.00;3.00;;;;;25.36;31.18;101287.34;146621;628;46016;-69
2022/09/24 14:19:19;;;;;;;;;4.00;4.00;;;;;25.27;31.80;101295.31;146629;668;46011;-67
2022/09/24 14:22:35;;;;;;;;;4.00;3.33;;;;;25.27;31.87;101284.69;146625;624;46914;-68
2022/09/24 14:25:47;;;;;;;;;5.00;4.00;;;;;25.22;30.42;101275.84;146628;612;46010;-68
2022/09/24 14:28:42;;;;;;;;;4.67;3.67;;;;;25.17;30.41;101283.81;146623;628;46016;-68
2022/09/24 14:31:49;;;;;;;;;4.67;3.00;;;;;25.09;31.16;101274.94;146628;603;46020;-69
2022/09/24 14:34:54;;;;;;;;;3.00;3.00;;;;;25.07;31.02;101276.69;146622;586;46017;-70
2022/09/24 14:38:24;;;;;;;;;6.00;3.75;;;;;25.02;31.93;101276.69;146629;674;46031;-68
2022/09/24 14:41:27;;;;;;;;;3.00;3.00;;;;;24.94;30.71;101283.75;146622;583;46016;-68
2022/09/24 14:44:44;;;;;;;;;;;;;;;;;;;;;
2022/09/24 14:47:47;;;;;;;;;3.00;3.00;;;;;24.88;31.31;101278.44;146618;669;46016;-68
2022/09/24 14:50:54;;;;;;;;;4.00;4.00;;;;;24.88;32.01;101281.97;146622;667;46021;-69
2022/09/24 14:53:59;;;;;;;;;3.50;3.50;;;;;24.86;31.11;101278.47;146621;598;46016;-67
2022/09/24 14:56:56;;;;;;;;;2.25;2.25;;;;;24.89;31.42;101278.47;146615;695;46011;-68
2022/09/24 14:59:51;;;;;;;;;4.00;3.25;;;;;24.86;31.42;101277.59;146618;565;46012;-67
2022/09/24 15:02:50;;;;;;;;;2.25;2.25;;;;;24.74;30.87;101265.19;146622;584;46010;-69
2022/09/24 15:05:49;;;;;;;;;4.75;4.75;;;;;24.59;31.01;101271.34;146617;589;46016;-68